• Join FlightAware (Why Join?)
  • Login
  • US Flag 
03:45AM EDT


 

Airport Tracker/Info


-or-


 

Live Flight TrackerFlight Track Log ✈ GJS3710 ✈ 24-Apr-2013 ✈ KSTL - KORD

Flight Track Log - Related Links

Times and Time Zones

All times are in EDT time to prevent confusion due to time zone crossing. See the GJS3710 flight status page for this flight to view local times or setup timezone preferences in your user account.

Time Position Orientation Groundspeed Altitude Reporting Facility
EDT Latitude Longitude Course Direction KTS MPH feet Rate Location/Type
06:52PM 38.7622 -90.3650 14° North 152 175 1,800  Level FAA TRACON SMA TRACON (SMA)
06:52PM 38.7761 -90.3711 341° North 167 192 2,200 1,500 Climbing FAA TRACON SMA TRACON (SMA)
06:52PM 38.7925 -90.3761 347° North 189 217 2,800 2,100 Climbing FAA TRACON SMA TRACON (SMA)
06:53PM 38.8156 -90.3803 352° North 217 250 3,600 2,160 Climbing FAA TRACON SMA TRACON (SMA)
06:53PM 38.8350 -90.3706 21° North 244 281 4,300 2,340 Climbing FAA TRACON SMA TRACON (SMA)
06:54PM 38.8542 -90.3558 31° Northeast 258 297 5,200 3,180 Climbing FAA TRACON SMA TRACON (SMA)
06:54PM 38.8789 -90.3378 30° Northeast 266 306 6,400 3,180 Climbing FAA TRACON SMA TRACON (SMA)
06:54PM 38.8989 -90.3228 30° Northeast 269 310 7,300 2,580 Climbing FAA TRACON SMA TRACON (SMA)
06:55PM 38.9432 -90.1307 18° North  Level FlightAware Approximate
06:55PM 38.9192 -90.3081 29° Northeast 273 314 8,200  Level FAA TRACON SMA TRACON (SMA)
06:55PM 38.9450 -90.2886 30° Northeast 280 322 9,200 3,180 Climbing FAA TRACON SMA TRACON (SMA)
06:55PM 38.9664 -90.2733 29° Northeast 283 326 10,300 2,760 Climbing FAA TRACON SMA TRACON (SMA)
06:55PM 38.9878 -90.2581 29° Northeast 288 331 11,000 2,580 Climbing FAA TRACON SMA TRACON (SMA)
06:56PM 39.0271 -90.0965 14° North  Level FlightAware Approximate
06:56PM 39.0147 -90.2369 31° Northeast 294 338 12,100  Level FAA TRACON SMA TRACON (SMA)
06:56PM 39.0367 -90.2214 29° Northeast 294 338 13,100 2,580 Climbing FAA TRACON SMA TRACON (SMA)
06:56PM 39.0583 -90.2044 31° Northeast 296 341 13,800 2,700 Climbing FAA TRACON SMA TRACON (SMA)
06:57PM 39.1124 -90.0681 14° North  Level FlightAware Approximate
06:57PM 39.0861 -90.1842 30° Northeast 299 344 14,900  Level FAA TRACON SMA TRACON (SMA)
06:57PM 39.1092 -90.1669 30° Northeast 305 351 15,400 1,500 Climbing FAA TRACON SMA TRACON (SMA)
06:58PM 39.1331 -90.1486 31° Northeast 319 367 15,900 1,800 Climbing FAA TRACON SMA TRACON (SMA)
06:58PM 39.1639 -90.1256 30° Northeast 334 384 16,600 2,280 Climbing FAA TRACON SMA TRACON (SMA)
06:58PM 39.1889 -90.1064 31° Northeast 340 391 17,400 1,860 Climbing FAA TRACON SMA TRACON (SMA)
06:59PM 39.2147 -90.0886 28° Northeast 341 392 17,900 1,860 Climbing FAA TRACON SMA TRACON (SMA)
06:59PM 39.2464 -90.0647 30° Northeast 343 395 18,700 1,800 Climbing FAA TRACON SMA TRACON (SMA)
06:59PM 39.2725 -90.0442 31° Northeast 351 404 19,100 1,500 Climbing FAA TRACON SMA TRACON (SMA)
06:59PM 39.2992 -90.0236 31° Northeast 361 415 19,700 1,800 Climbing FAA TRACON SMA TRACON (SMA)
07:00PM 39.3342 -90.0008 27° Northeast 368 423 20,300 1,260 Climbing FAA TRACON SMA TRACON (SMA)
07:01PM 39.3906 -89.9575 31° Northeast 386 444 21,000 660 Climbing FAA TRACON SMA TRACON (SMA)
07:01PM 39.4203 -89.9350 30° Northeast 394 453 21,000  Level FAA TRACON SMA TRACON (SMA)
07:01PM 39.4558 -89.9064 32° Northeast 394 453 21,000  Level FAA TRACON SMA TRACON (SMA)
07:02PM 39.4861 -89.8881 25° Northeast 390 449 21,000  Level FAA TRACON SMA TRACON (SMA)
07:02PM 39.5211 -89.8589 33° Northeast 389 448 21,000  Level FAA TRACON SMA TRACON (SMA)
07:02PM 39.5492 -89.8358 32° Northeast 389 448 21,000  Level FAA TRACON SMA TRACON (SMA)
07:02PM 39.5750 -89.8769 309° West 392 451 21,000  Level Kansas City Center
07:03PM 39.6081 -89.7961 62° Northeast 387 445 21,000  Level FAA TRACON SMA TRACON (SMA)
07:03PM 39.6369 -89.7758 28° Northeast 388 447 21,000  Level FAA TRACON SMA TRACON (SMA)
07:03PM 39.6369 -89.7758 330° Northwest 388 447 21,000  Level FAA TRACON SMA TRACON (SMA)
07:04PM 39.7181 -89.7708 North 386 444 21,000  Level Chicago Center
07:04PM 39.7558 -89.7403 32° Northeast 386 444 21,000  Level Kansas City Center
07:06PM 39.8472 -89.6697 31° Northeast 383 441 21,000 480 Level Kansas City Center
07:07PM 39.9500 -89.5706 36° Northeast 381 438 22,000 960 Climbing Kansas City Center
07:07PM 40.0011 -89.5239 35° Northeast 384 442 22,600 600 Climbing Chicago Center
07:08PM 40.0933 -89.4375 36° Northeast 402 463 23,000 180 Climbing Chicago Center
07:09PM 40.1828 -89.3508 37° Northeast 405 466 23,000  Level Chicago Center
07:10PM 40.2669 -89.2703 36° Northeast 386 444 23,000  Level Chicago Center
07:11PM 40.3492 -89.1919 36° Northeast 372 428 23,000  Level Chicago Center
07:12PM 40.4503 -89.0936 36° Northeast 378 435 23,000  Level Chicago Center
07:13PM 40.5347 -89.0128 36° Northeast 378 435 23,000  Level Chicago Center
07:14PM 40.6206 -88.9297 36° Northeast 384 442 23,000  Level Chicago Center
07:15PM 40.7153 -88.8361 37° Northeast 413 475 23,000  Level Chicago Center
07:16PM 40.8083 -88.7467 36° Northeast 416 479 23,000 -180 Level Chicago Center
07:17PM 40.9131 -88.7189 11° North 383 441 22,700 -1,020 Descending Chicago Center
07:19PM 41.0356 -88.6997 North 367 422 20,900 -1,920 Descending Chicago Center
07:20PM 41.1342 -88.6856 North 358 412 18,800 -1,920 Descending Chicago Center
07:21PM 41.2306 -88.6708 North 350 403 17,000 -1,920 Descending Chicago Center
07:22PM 41.3178 -88.6831 354° North 317 365 14,900 -2,040 Descending Chicago Center
07:23PM 41.3986 -88.7200 341° North 307 353 12,900 -1,740 Descending Chicago Center
07:24PM 41.4814 -88.6911 15° North 344 396 11,400 -960 Descending Chicago Center
07:25PM 41.5461 -88.5922 49° Northeast 354 407 11,000 -240 Descending Chicago Center
07:26PM 41.6167 -88.4672 53° Northeast 351 404 11,000 -240 Level Chicago Center
07:27PM 41.6753 -88.3617 53° Northeast 353 406 10,500 -480 Descending Chicago Center
07:28PM 41.7356 -88.2572 52° Northeast 355 409 10,000 -600 Descending Chicago Center
07:29PM 41.7892 -88.1608 53° Northeast 321 369 9,300 -1,200 Descending Chicago Center
07:30PM 41.8367 -88.0764 53° Northeast 291 335 7,600 -1,200 Descending Chicago Center
07:31PM 41.8833 -87.9833 56° Northeast 278 320 7,000 -300 Descending Chicago TRACON
07:32PM 41.8833 -87.8667 90° East 259 298 7,000 -300 Level Chicago TRACON
07:33PM 41.8833 -87.7833 90° East 242 278 6,500 -960 Descending Chicago TRACON
07:34PM 41.9000 -87.6833 77° East 247 284 5,100 -1,320 Descending Chicago TRACON
07:35PM 41.9500 -87.7000 346° North 215 247 3,900 -1,260 Descending Chicago TRACON
07:36PM 41.9667 -87.7500 294° West 169 194 2,600 -1,080 Descending Chicago TRACON
07:37PM 41.9667 -87.8167 270° West 137 158 1,800 -780 Descending Chicago TRACON
07:38PM 41.9667 -87.8667 270° West 127 146 1,100 -660 Descending Chicago TRACON